createdAt,value
2018-05-24T00:00:08.937Z,65.20
2018-05-24T00:02:41.732Z,62.53
2018-05-24T00:05:12.019Z,62.73
2018-05-24T00:07:41.724Z,67.47
2018-05-24T00:10:12.972Z,70.33
2018-05-24T00:12:41.462Z,70.80
2018-05-24T00:15:11.696Z,65.67
2018-05-24T00:17:40.723Z,64.87
2018-05-24T00:20:09.756Z,65.57
2018-05-24T00:22:38.082Z,65.77
2018-05-24T00:25:08.372Z,68.63
2018-05-24T00:27:36.671Z,66.07
2018-05-24T00:30:05.666Z,67.23
2018-05-24T00:32:39.078Z,65.60
2018-05-24T00:35:08.726Z,66.53
2018-05-24T00:37:39.578Z,64.77
2018-05-24T00:40:09.215Z,62.13
2018-05-24T00:42:38.769Z,67.67
2018-05-24T00:45:09.280Z,67.13
2018-05-24T00:47:40.876Z,66.07
2018-05-24T00:50:09.667Z,66.80
2018-05-24T00:52:40.396Z,70.07
2018-05-24T00:55:22.242Z,72.80
2018-05-24T00:57:58.090Z,74.93
2018-05-24T01:00:27.360Z,69.83
2018-05-24T01:02:55.621Z,68.93
2018-05-24T01:05:24.714Z,74.67
2018-05-24T01:07:52.942Z,75.47
2018-05-24T01:10:21.192Z,74.37
2018-05-24T01:12:51.666Z,75.53
2018-05-24T01:15:35.678Z,75.13
2018-05-24T01:18:16.722Z,74.63
2018-05-24T01:20:50.605Z,79.20
2018-05-24T01:23:39.858Z,83.30
2018-05-24T01:26:14.553Z,92.70
2018-05-24T01:28:43.512Z,79.30
2018-05-24T01:31:18.341Z,81.70
2018-05-24T01:34:07.868Z,94.67
2018-05-24T01:36:53.869Z,85.80
2018-05-24T01:39:29.102Z,87.27
2018-05-24T01:41:58.792Z,92.23
2018-05-24T01:44:28.165Z,93.20
2018-05-24T01:46:56.721Z,87.43
2018-05-24T01:49:28.987Z,90.87
2018-05-24T01:51:59.076Z,90.90
2018-05-24T01:54:27.497Z,88.17
2018-05-24T01:56:55.759Z,80.30
2018-05-24T01:59:23.984Z,85.70
2018-05-24T02:01:52.337Z,84.47
2018-05-24T02:04:21.606Z,94.03
2018-05-24T02:06:49.917Z,105.57
2018-05-24T02:09:18.160Z,102.90
2018-05-24T02:11:46.407Z,96.87
2018-05-24T02:14:14.744Z,94.73
2018-05-24T02:16:42.991Z,94.13
2018-05-24T02:19:11.978Z,100.87
2018-05-24T02:21:41.056Z,116.43
2018-05-24T02:24:11.229Z,133.20
2018-05-24T02:26:40.439Z,113.13
2018-05-24T02:29:11.440Z,99.53
2018-05-24T02:31:40.072Z,95.40
2018-05-24T02:34:08.343Z,88.10
2018-05-24T02:36:36.652Z,86.40
2018-05-24T02:39:05.767Z,94.00
2018-05-24T02:41:36.152Z,86.70
2018-05-24T02:44:05.207Z,78.23
2018-05-24T02:46:35.136Z,87.43
2018-05-24T02:49:03.455Z,86.50
2018-05-24T02:51:32.658Z,75.97
2018-05-24T02:54:01.145Z,66.17
2018-05-24T02:56:30.127Z,61.60
2018-05-24T02:58:58.485Z,59.50
2018-05-24T03:01:27.992Z,67.80
2018-05-24T03:03:57.142Z,74.50
2018-05-24T03:06:25.377Z,77.83
2018-05-24T03:08:53.769Z,81.87
2018-05-24T03:11:23.331Z,78.27
2018-05-24T03:13:52.419Z,80.47
2018-05-24T03:16:21.410Z,78.57
2018-05-24T03:18:51.090Z,79.97
2018-05-24T03:21:21.027Z,89.00
2018-05-24T03:23:49.335Z,81.50
2018-05-24T03:26:20.579Z,105.30
2018-05-24T03:28:49.252Z,94.57
2018-05-24T03:31:17.541Z,125.93
2018-05-24T03:33:45.886Z,120.97
2018-05-24T03:36:14.231Z,129.87
2018-05-24T03:38:42.938Z,121.40
2018-05-24T03:41:13.460Z,138.33
2018-05-24T03:43:42.552Z,111.73
2018-05-24T03:46:10.896Z,88.37
2018-05-24T03:48:40.604Z,74.77
2018-05-24T03:51:08.884Z,69.40
2018-05-24T03:53:42.020Z,61.13
2018-05-24T03:56:11.483Z,52.93
2018-05-24T03:58:40.232Z,49.20
2018-05-24T04:01:21.093Z,45.63
2018-05-24T04:03:51.110Z,44.37
2018-05-24T04:06:21.939Z,40.50
2018-05-24T04:08:51.236Z,42.23
2018-05-24T04:11:20.161Z,35.43
2018-05-24T04:13:48.386Z,31.20
2018-05-24T04:16:18.167Z,29.27
2018-05-24T04:18:46.461Z,27.53
2018-05-24T04:21:15.374Z,26.67
2018-05-24T04:23:43.588Z,22.37
2018-05-24T04:26:12.195Z,20.43
2018-05-24T04:28:41.519Z,19.87
2018-05-24T04:31:10.555Z,20.10
2018-05-24T04:33:38.772Z,17.77
2018-05-24T04:36:07.821Z,17.27
2018-05-24T04:38:36.055Z,16.77
2018-05-24T04:41:06.223Z,16.87
2018-05-24T04:43:34.704Z,14.70
2018-05-24T04:46:03.690Z,15.70
2018-05-24T04:48:32.804Z,14.50
2018-05-24T04:51:02.058Z,14.73
2018-05-24T04:53:32.035Z,15.03
2018-05-24T04:56:00.322Z,13.73
2018-05-24T04:58:28.986Z,13.53
2018-05-24T05:00:57.346Z,13.60
2018-05-24T05:03:25.644Z,13.60
2018-05-24T05:05:54.555Z,13.60
2018-05-24T05:08:25.446Z,13.27
2018-05-24T05:10:53.998Z,16.37
2018-05-24T05:13:23.146Z,12.73
2018-05-24T05:15:51.562Z,12.03
2018-05-24T05:18:19.883Z,12.10
2018-05-24T05:20:49.038Z,13.70
2018-05-24T05:23:18.504Z,13.07
2018-05-24T05:25:47.680Z,12.07
2018-05-24T05:28:16.358Z,14.37
2018-05-24T05:30:44.701Z,13.17
2018-05-24T05:33:12.966Z,13.33
2018-05-24T05:35:42.132Z,12.60
2018-05-24T05:38:10.438Z,12.73
2018-05-24T05:40:39.557Z,12.23
2018-05-24T05:43:07.825Z,13.87
2018-05-24T05:45:36.914Z,15.40
2018-05-24T05:48:10.878Z,13.60
2018-05-24T05:50:43.420Z,15.53
2018-05-24T05:56:12.052Z,13.20
2018-05-24T05:58:49.809Z,13.50
2018-05-24T06:01:21.942Z,15.17
2018-05-24T06:06:50.806Z,13.23
2018-05-24T06:09:21.246Z,13.30
2018-05-24T06:11:50.343Z,13.87
2018-05-24T06:14:27.037Z,12.97
2018-05-24T06:17:00.261Z,13.40
2018-05-24T06:19:30.229Z,12.03
2018-05-24T06:22:10.595Z,11.03
2018-05-24T06:24:40.203Z,10.20
2018-05-24T06:27:26.350Z,9.90
2018-05-24T06:29:55.865Z,9.87
2018-05-24T06:32:31.784Z,9.80
2018-05-24T06:35:01.467Z,10.60
2018-05-24T06:37:30.002Z,9.93
2018-05-24T06:39:58.411Z,13.50
2018-05-24T06:42:26.978Z,10.20
2018-05-24T06:44:56.417Z,10.90
2018-05-24T06:47:41.787Z,11.40
2018-05-24T06:50:21.247Z,11.27
2018-05-24T06:53:07.241Z,10.73
2018-05-24T06:55:51.957Z,10.60
2018-05-24T06:58:29.269Z,12.63
2018-05-24T07:01:04.980Z,10.57
2018-05-24T07:03:40.724Z,11.23
2018-05-24T07:09:22.322Z,9.80
2018-05-24T07:12:06.906Z,9.93
2018-05-24T07:15:08.115Z,9.50
2018-05-24T07:20:48.629Z,11.23
2018-05-24T07:23:44.586Z,10.27
2018-05-24T07:26:21.573Z,10.00
2018-05-24T07:28:51.238Z,12.20
2018-05-24T07:31:22.004Z,9.90
2018-05-24T07:33:53.537Z,12.67
2018-05-24T07:36:24.700Z,11.93
2018-05-24T07:38:57.890Z,10.53
2018-05-24T07:41:27.876Z,11.37
2018-05-24T07:43:58.352Z,10.33
2018-05-24T07:46:29.452Z,10.60
2018-05-24T07:49:00.712Z,13.53
2018-05-24T07:51:31.180Z,10.70
2018-05-24T07:54:03.138Z,12.33
2018-05-24T07:56:33.368Z,10.10
2018-05-24T07:59:02.493Z,12.27
2018-05-24T08:01:30.892Z,11.17
2018-05-24T08:03:59.282Z,11.47
2018-05-24T08:06:28.345Z,12.23
2018-05-24T08:08:56.633Z,11.47
2018-05-24T08:11:25.540Z,10.93
2018-05-24T08:13:53.921Z,9.53
2018-05-24T08:16:23.725Z,10.40
2018-05-24T08:18:53.267Z,10.00
2018-05-24T08:21:23.327Z,9.90
2018-05-24T08:23:54.535Z,10.20
2018-05-24T08:26:24.023Z,13.43
2018-05-24T08:28:52.609Z,10.13
2018-05-24T08:31:21.572Z,11.00
2018-05-24T08:33:50.996Z,12.03
2018-05-24T08:36:19.353Z,14.10
2018-05-24T08:38:47.660Z,13.37
2018-05-24T08:41:18.588Z,14.10
2018-05-24T08:43:48.189Z,13.67
2018-05-24T08:46:16.421Z,13.70
2018-05-24T08:48:44.769Z,13.27
2018-05-24T08:51:13.043Z,16.93
2018-05-24T08:53:41.544Z,13.23
2018-05-24T08:56:12.170Z,13.87
2018-05-24T08:58:40.961Z,12.57
2018-05-24T09:01:09.947Z,13.47
2018-05-24T09:03:39.947Z,13.53
2018-05-24T09:06:09.630Z,15.93
2018-05-24T09:08:37.969Z,13.80
2018-05-24T09:11:07.144Z,14.70
2018-05-24T09:13:35.659Z,14.63
2018-05-24T09:16:04.025Z,14.90
2018-05-24T09:18:35.561Z,15.00
2018-05-24T09:21:07.337Z,14.67
2018-05-24T09:23:36.750Z,15.60
2018-05-24T09:26:05.858Z,16.13
2018-05-24T09:28:38.963Z,15.30
2018-05-24T09:31:07.704Z,15.93
2018-05-24T09:33:39.236Z,14.57
2018-05-24T09:36:09.223Z,14.13
2018-05-24T09:38:40.213Z,11.50
2018-05-24T09:41:08.898Z,12.27
2018-05-24T09:43:40.114Z,12.27
2018-05-24T09:46:09.276Z,12.30
2018-05-24T09:48:44.209Z,13.97
2018-05-24T09:51:17.336Z,13.97
2018-05-24T09:53:48.018Z,14.73
2018-05-24T09:56:33.785Z,14.90
2018-05-24T09:59:09.006Z,15.93
2018-05-24T10:01:56.167Z,14.33
2018-05-24T10:04:30.770Z,15.23
2018-05-24T10:07:19.793Z,15.00
2018-05-24T10:09:56.567Z,13.93
2018-05-24T10:16:06.698Z,14.47
2018-05-24T10:18:43.427Z,13.97
2018-05-24T10:21:26.761Z,14.27
2018-05-24T10:26:51.938Z,14.73
2018-05-24T10:29:40.701Z,13.00
2018-05-24T10:32:14.842Z,13.13
2018-05-24T10:34:51.540Z,14.17
2018-05-24T10:37:22.106Z,13.07
2018-05-24T10:39:54.484Z,15.00
2018-05-24T10:42:23.005Z,15.77
2018-05-24T10:44:52.132Z,15.77
2018-05-24T10:47:21.200Z,14.10
2018-05-24T10:49:55.322Z,14.90
2018-05-24T10:52:24.968Z,16.00
2018-05-24T10:54:55.064Z,16.47
2018-05-24T10:57:24.378Z,15.60
2018-05-24T10:59:56.453Z,15.73
2018-05-24T11:02:30.632Z,15.70
2018-05-24T11:04:59.794Z,16.43
2018-05-24T11:07:28.218Z,16.73
2018-05-24T11:09:56.552Z,15.17
2018-05-24T11:12:35.221Z,16.15
2018-05-24T11:28:08.623Z,18.67
2018-05-24T11:30:37.113Z,18.63
2018-05-24T11:33:06.250Z,17.87
2018-05-24T11:35:36.370Z,18.30
2018-05-24T11:38:05.284Z,16.80
2018-05-24T11:40:33.619Z,17.20
2018-05-24T11:43:02.852Z,18.30
2018-05-24T11:45:32.015Z,17.57
2018-05-24T11:48:00.380Z,18.07
2018-05-24T11:50:30.594Z,18.80
2018-05-24T11:52:59.651Z,18.53
2018-05-24T11:55:29.115Z,19.23
2018-05-24T11:57:57.783Z,19.63
2018-05-24T12:00:26.275Z,18.87
2018-05-24T12:02:57.025Z,19.50
2018-05-24T12:05:25.508Z,19.00
2018-05-24T12:07:54.111Z,18.40
2018-05-24T12:10:23.400Z,19.37
2018-05-24T12:13:14.936Z,18.97
2018-05-24T12:15:57.998Z,18.03
2018-05-24T12:18:28.060Z,18.93
2018-05-24T12:20:57.852Z,19.73
2018-05-24T12:23:26.098Z,19.37
2018-05-24T12:26:02.522Z,18.27
2018-05-24T12:28:33.994Z,19.17
2018-05-24T12:31:03.254Z,18.73
2018-05-24T12:33:43.618Z,18.73
2018-05-24T12:38:53.039Z,18.60
2018-05-24T12:41:21.458Z,19.37
2018-05-24T12:43:50.000Z,20.37
2018-05-24T12:46:19.085Z,19.73
2018-05-24T12:48:48.615Z,18.80
2018-05-24T12:51:19.715Z,19.33
2018-05-24T12:53:48.419Z,19.87
2018-05-24T12:56:17.493Z,19.93
2018-05-24T12:58:53.737Z,21.60
2018-05-24T13:01:23.660Z,20.73
2018-05-24T13:04:10.454Z,20.40
2018-05-24T13:06:39.382Z,21.50
2018-05-24T13:09:07.849Z,23.07
2018-05-24T13:11:36.091Z,23.50
2018-05-24T13:14:05.325Z,22.37
2018-05-24T13:16:34.905Z,22.67
2018-05-24T13:19:13.626Z,22.83
2018-05-24T13:21:42.949Z,24.00
2018-05-24T13:24:11.983Z,22.27
2018-05-24T13:26:41.065Z,21.67
2018-05-24T13:29:10.197Z,22.90
2018-05-24T13:31:39.567Z,22.73
2018-05-24T13:34:07.813Z,21.93
2018-05-24T13:36:36.219Z,23.30
2018-05-24T13:39:05.293Z,22.10
2018-05-24T13:41:33.601Z,21.40
2018-05-24T13:44:01.947Z,20.93
2018-05-24T13:46:30.270Z,20.13
2018-05-24T13:48:58.669Z,20.57
2018-05-24T13:51:26.877Z,21.00
2018-05-24T13:53:55.116Z,20.57
2018-05-24T13:56:23.590Z,19.30
2018-05-24T13:58:52.042Z,19.83
2018-05-24T14:01:23.023Z,20.03
2018-05-24T14:03:51.373Z,20.60
2018-05-24T14:06:20.207Z,19.37
2018-05-24T14:08:49.567Z,21.77
2018-05-24T14:11:17.944Z,20.33
2018-05-24T14:13:51.144Z,20.07
2018-05-24T14:16:19.774Z,19.47
2018-05-24T14:18:48.922Z,23.00
2018-05-24T14:21:17.220Z,19.37
2018-05-24T14:23:45.566Z,20.53
2018-05-24T14:26:13.901Z,20.23
2018-05-24T14:28:42.110Z,20.50
2018-05-24T14:31:12.664Z,19.60
2018-05-24T14:33:41.259Z,21.70
2018-05-24T14:36:09.639Z,19.60
2018-05-24T14:38:37.981Z,20.13
2018-05-24T14:41:06.298Z,19.37
2018-05-24T14:43:34.522Z,20.27
2018-05-24T14:46:04.605Z,19.60
2018-05-24T14:48:33.689Z,20.47
2018-05-24T14:51:01.916Z,20.30
2018-05-24T14:53:30.992Z,22.40
2018-05-24T14:55:59.275Z,22.70
2018-05-24T14:58:27.606Z,20.30
2018-05-24T15:00:55.941Z,21.97
2018-05-24T15:03:25.109Z,22.47
2018-05-24T15:05:53.504Z,21.57
2018-05-24T15:08:21.874Z,21.17
2018-05-24T15:10:50.162Z,21.53
2018-05-24T15:13:30.715Z,23.13
2018-05-24T15:15:58.942Z,23.87
2018-05-24T15:18:27.222Z,24.60
2018-05-24T15:20:56.273Z,23.17
2018-05-24T15:23:24.681Z,23.37
2018-05-24T15:25:53.151Z,25.30
2018-05-24T15:28:22.458Z,24.80
2018-05-24T15:30:51.531Z,25.10
2018-05-24T15:33:19.908Z,25.40
2018-05-24T15:35:49.138Z,25.90
2018-05-24T15:38:17.478Z,25.27
2018-05-24T15:40:45.976Z,27.20
2018-05-24T15:43:14.177Z,27.47
2018-05-24T15:45:42.591Z,28.13
2018-05-24T15:48:10.841Z,27.37
2018-05-24T15:50:39.867Z,28.17
2018-05-24T15:53:08.166Z,28.87
2018-05-24T15:55:36.474Z,29.60
2018-05-24T15:58:04.851Z,29.13
2018-05-24T16:00:33.257Z,29.90
2018-05-24T16:03:01.605Z,29.97
2018-05-24T16:05:29.941Z,30.13
2018-05-24T16:07:58.218Z,31.33
2018-05-24T16:10:27.207Z,30.67
2018-05-24T16:12:56.878Z,32.27
2018-05-24T16:15:25.308Z,31.33
2018-05-24T16:17:53.598Z,31.63
2018-05-24T16:20:21.904Z,31.57
2018-05-24T16:22:50.280Z,30.60
2018-05-24T16:25:18.559Z,30.53
2018-05-24T16:27:50.599Z,30.27
2018-05-24T16:30:19.188Z,31.70
2018-05-24T16:32:47.466Z,31.03
2018-05-24T16:35:15.830Z,31.57
2018-05-24T16:37:44.144Z,32.93
2018-05-24T16:40:12.386Z,34.60
2018-05-24T16:42:40.705Z,33.83
2018-05-24T16:45:08.973Z,32.30
2018-05-24T16:47:37.397Z,38.70
2018-05-24T16:50:05.631Z,33.77
2018-05-24T16:52:33.872Z,37.70
2018-05-24T16:55:02.779Z,35.50
2018-05-24T16:57:32.034Z,36.23
2018-05-24T17:00:00.980Z,38.23
2018-05-24T17:02:30.114Z,41.43
2018-05-24T17:04:58.493Z,38.67
2018-05-24T17:07:26.875Z,38.87
2018-05-24T17:09:55.268Z,37.33
2018-05-24T17:12:23.769Z,42.47
2018-05-24T17:14:52.016Z,28.70
2018-05-24T17:17:20.450Z,24.07
2018-05-24T17:19:49.489Z,22.70
2018-05-24T17:22:17.990Z,17.70
2018-05-24T17:24:46.253Z,13.63
2018-05-24T17:27:15.284Z,15.33
2018-05-24T17:29:44.308Z,15.07
2018-05-24T17:32:13.434Z,12.40
2018-05-24T17:34:41.681Z,13.10
2018-05-24T17:37:10.715Z,12.10
2018-05-24T17:39:39.040Z,10.30
2018-05-24T17:42:08.017Z,12.30
2018-05-24T17:44:36.574Z,10.73
2018-05-24T17:47:04.782Z,14.37
2018-05-24T17:49:33.198Z,12.63
2018-05-24T17:52:02.226Z,12.50
2018-05-24T17:54:30.450Z,12.77
2018-05-24T17:56:59.422Z,12.47
2018-05-24T17:59:27.630Z,13.07
2018-05-24T18:01:56.088Z,15.17
2018-05-24T18:04:25.181Z,14.97
2018-05-24T18:06:53.408Z,14.37
2018-05-24T18:09:21.669Z,12.77
2018-05-24T18:11:50.921Z,11.30
2018-05-24T18:14:26.534Z,9.83
2018-05-24T18:16:55.259Z,10.27
2018-05-24T18:19:23.501Z,10.63
2018-05-24T18:21:52.705Z,9.43
2018-05-24T18:24:21.636Z,9.83
2018-05-24T18:26:49.912Z,8.60
2018-05-24T18:29:18.164Z,8.50
2018-05-24T18:31:46.418Z,8.57
2018-05-24T18:34:14.732Z,9.13
2018-05-24T18:36:44.750Z,8.57
2018-05-24T18:39:12.978Z,8.57
2018-05-24T18:41:41.972Z,8.43
2018-05-24T18:44:11.035Z,8.37
2018-05-24T18:46:39.244Z,8.67
2018-05-24T18:49:08.593Z,8.77
2018-05-24T18:51:36.908Z,12.73
2018-05-24T18:54:05.971Z,10.67
2018-05-24T18:56:34.236Z,10.27
2018-05-24T18:59:03.368Z,11.93
2018-05-24T19:01:31.640Z,11.73
2018-05-24T19:04:00.973Z,11.50
2018-05-24T19:06:29.322Z,12.33
2018-05-24T19:08:58.663Z,11.87
2018-05-24T19:11:27.710Z,12.13
2018-05-24T19:13:56.304Z,12.50
2018-05-24T19:16:24.779Z,12.77
2018-05-24T19:18:53.077Z,18.73
2018-05-24T19:21:33.022Z,12.63
2018-05-24T19:24:01.974Z,12.73
2018-05-24T19:26:31.047Z,13.53
2018-05-24T19:29:03.809Z,13.43
2018-05-24T19:31:32.221Z,12.23
2018-05-24T19:34:00.865Z,12.00
2018-05-24T19:36:29.245Z,12.10
2018-05-24T19:38:58.487Z,13.17
2018-05-24T19:41:26.923Z,13.13
2018-05-24T19:43:55.199Z,11.90
2018-05-24T19:46:23.537Z,11.80
2018-05-24T19:48:54.464Z,13.70
2018-05-24T19:51:23.602Z,12.30
2018-05-24T19:53:51.892Z,13.87
2018-05-24T19:56:20.307Z,13.67
2018-05-24T19:58:50.116Z,13.23
2018-05-24T20:01:18.366Z,12.67
2018-05-24T20:03:46.623Z,12.57
2018-05-24T20:06:15.749Z,14.10
2018-05-24T20:08:44.296Z,15.07
2018-05-24T20:11:12.582Z,14.50
2018-05-24T20:13:42.170Z,14.60
2018-05-24T20:16:11.198Z,15.97
2018-05-24T20:18:40.502Z,16.47
2018-05-24T20:21:10.936Z,15.07
2018-05-24T20:23:46.356Z,15.83
